Currently 46°F in Murrieta, California, USA
46°F
47°F / 45°F
calm
0.00"
Sunday, March 29, 2020 1:47 AM PDT

Murrieta, California Weather Summary
Last 36 Hours

Temperature Winds Hourly Humidity Dewpoint
Time Report Norm Report Norm Max Gusts Precip. Rpt. Norm Rpt. Norm Pressure
1Sun 01:47 AM  45.9°F  50°F  calm  2 mph  none  0.00"  90%  87%  43°F  46°F  30.10"
3Sun 01:14 AM  45.3°F  51°F  calm  2 mph  none  ----  91%  86%  43°F  46°F  30.11"
Sun 01:00 AM  45.5°F  51°F  calm  2 mph  none  0.00"  91%  86%  43°F  47°F  30.11"
2Sun 12:00 AM  46.9°F  52°F  calm  2 mph  none  0.00"  89%  85%  44°F  47°F  30.12"
Sat 11:00 PM  48.1°F  53°F  calm  2 mph  none  0.00"  87%  83%  44°F  47°F  30.12"
Sat 10:00 PM  50.4°F  54°F  calm  3 mph  none  0.00"  82%  80%  45°F  48°F  30.12"
Sat 09:00 PM  52.7°F  55°F  calm  3 mph  none  0.00"  78%  77%  46°F  48°F  30.12"
Sat 08:00 PM  54.5°F  58°F  calm  4 mph  none  0.00"  75%  72%  46°F  49°F  30.10"
Sat 07:00 PM  56.1°F  61°F  calm  5 mph  none  0.00"  69%  66%  46°F  49°F  30.10"
Sat 06:00 PM  58.1°F  64°F  calm  6 mph  none  0.00"  67%  59%  47°F  49°F  30.09"
Sat 05:00 PM  60.9°F  67°F  calm  7 mph  none  0.00"  61%  52%  47°F  49°F  30.10"
Sat 04:00 PM  61.4°F  70°F  calm  7 mph  none  0.00"  62%  48%  48°F  49°F  30.11"
Sat 03:00 PM  61.5°F  71°F  calm  7 mph  none  0.00"  63%  47%  48°F  49°F  30.12"
Sat 02:00 PM  62.7°F  71°F  calm  6 mph  none  0.00"  60%  45%  48°F  48°F  30.15"
Sat 01:00 PM  63.1°F  70°F  calm  5 mph  none  0.00"  52%  46%  45°F  48°F  30.17"
Sat 12:00 PM  61.8°F  68°F  calm  5 mph  none  0.00"  48%  50%  41°F  48°F  30.19"
Sat 11:00 AM  59.8°F  65°F  calm  4 mph  none  0.00"  57%  57%  44°F  49°F  30.21"
Sat 10:00 AM  54.9°F  61°F  calm  3 mph  none  0.00"  65%  67%  43°F  49°F  30.21"
Sat 09:00 AM  49.6°F  56°F  calm  2 mph  none  0.00"  82%  79%  44°F  49°F  30.20"
Sat 08:00 AM  41.9°F  51°F  calm  1 mph  none  0.00"  95%  88%  41°F  47°F  30.19"
Sat 07:00 AM  38.4°F  48°F  calm  1 mph  none  0.00"  96%  91%  37°F  45°F  30.18"
Sat 06:00 AM  39.3°F  47°F  calm  1 mph  none  0.00"  95%  91%  38°F  45°F  30.17"
Sat 05:00 AM  40.2°F  48°F  calm  1 mph  none  0.00"  95%  91%  39°F  45°F  30.18"
Sat 04:00 AM  41.0°F  49°F  calm  1 mph  none  0.00"  93%  90%  39°F  46°F  30.18"
Sat 03:00 AM  42.1°F  49°F  calm  1 mph  none  0.00"  92%  88%  40°F  46°F  30.19"
Sat 02:00 AM  43.1°F  50°F  calm  1 mph  none  0.00"  89%  88%  40°F  46°F  30.20"
Sat 01:00 AM  44.1°F  51°F  calm  2 mph  none  0.00"  88%  87%  41°F  47°F  30.20"
Sat 12:00 AM  45.1°F  52°F  calm  2 mph  none  0.00"  85%  85%  41°F  47°F  30.20"
Fri 11:00 PM  46.3°F  52°F  calm  2 mph  none  0.00"  83%  84%  41°F  47°F  30.20"
Fri 10:00 PM  48.8°F  54°F  calm  2 mph  none  0.00"  78%  81%  42°F  48°F  30.20"
Fri 09:00 PM  50.1°F  55°F  calm  3 mph  none  0.00"  74%  77%  42°F  48°F  30.18"
Fri 08:00 PM  50.7°F  58°F  calm  4 mph  none  0.00"  72%  73%  42°F  49°F  30.15"
Fri 07:00 PM  52.7°F  61°F  calm  5 mph  none  0.00"  68%  67%  42°F  49°F  30.14"
Fri 06:00 PM  55.8°F  64°F  calm  6 mph  none  0.00"  62%  59%  42°F  49°F  30.12"
Fri 05:00 PM  57.9°F  67°F  calm  7 mph  none  0.00"  57%  52%  42°F  49°F  30.10"
Fri 04:00 PM  60.9°F  70°F  calm  7 mph  none  0.00"  51%  49%  42°F  49°F  30.09"
Fri 03:05 PM  60.0°F  70°F  calm  7 mph  none  0.00"  51%  48%  41°F  49°F  30.09"

  1. Current weather data. No green row appears if the current weather data is also the high or low for the current day.
  2. High temperature for the current day.
  3. Low temperature for the current day.

The Murrieta weather pages are a service of WeatherCurrents. Murrieta, California is located in the Temecula Valley, in southwestern Riverside County, at the junctions of the Interstate 15 and 215 highways.
Copyright ©2020  WeatherCurrents. All rights reserved. - Submit questions and comments - Privacy Policy

This page automatically refreshes every 10 minutes.